Time;durP1;ratioP1;P1;durP2;ratioP2;P2;SDS_P1;SDS_P2;PMS_P1;PMS_P2;Temp;Humidity;BMP_temperature;BMP_pressure;BME280_temperature;BME280_humidity;BME280_pressure;Samples;Min_cycle;Max_cycle;Signal;HPM_P1;HPM_P2
2022/12/27 00:00:00;;;;;;;11.13;1.38;;;;;;;9.82;48.98;101373.44;5002727;28;96898;-72
2022/12/27 00:02:27;;;;;;;10.70;1.13;;;;;;;9.88;49.10;101372.44;5014793;27;99218;-71
2022/12/27 00:04:53;;;;;;;13.43;2.80;;;;;;;9.72;49.66;101377.19;5002794;28;98866;-65
2022/12/27 00:07:21;;;;;;;12.45;1.38;;;;;;;9.80;49.89;101377.00;5008986;28;97060;-65
2022/12/27 00:09:47;;;;;;;13.07;1.02;;;;;;;9.85;49.65;101386.56;5008016;28;97455;-65
2022/12/27 00:12:14;;;;;;;7.55;1.42;;;;;;;9.60;50.14;101391.50;5009300;28;99007;-65
2022/12/27 00:14:40;;;;;;;10.27;1.25;;;;;;;9.51;50.61;101391.72;5001114;28;100736;-66
2022/12/27 00:17:07;;;;;;;9.95;1.20;;;;;;;9.22;50.98;101406.38;5008698;28;96708;-64
2022/12/27 00:19:33;;;;;;;9.10;1.33;;;;;;;9.33;51.26;101399.13;5000608;28;96880;-64
2022/12/27 00:21:59;;;;;;;11.00;1.55;;;;;;;9.69;50.51;101410.69;5005555;28;99021;-65
2022/12/27 00:24:27;;;;;;;11.20;1.10;;;;;;;9.30;51.21;101399.19;4994624;28;97543;-64
2022/12/27 00:26:54;;;;;;;12.35;1.60;;;;;;;9.26;50.69;101411.56;5012721;28;96633;-66
2022/12/27 00:29:20;;;;;;;6.03;1.05;;;;;;;9.39;50.90;101415.69;4998667;28;97229;-65
2022/12/27 00:31:46;;;;;;;7.47;1.20;;;;;;;9.41;50.90;101418.31;5010688;28;99002;-64
2022/12/27 00:34:13;;;;;;;11.65;1.50;;;;;;;9.57;51.27;101422.38;5002994;28;98816;-65
2022/12/27 00:36:39;;;;;;;12.73;1.25;;;;;;;9.83;50.27;101419.19;5008433;28;96729;-64
2022/12/27 00:39:06;;;;;;;8.32;1.88;;;;;;;9.84;50.04;101415.66;5003776;28;96975;-66
2022/12/27 00:41:33;;;;;;;6.50;1.00;;;;;;;9.79;49.92;101417.50;5005847;28;99081;-65
2022/12/27 00:44:00;;;;;;;10.38;1.08;;;;;;;9.47;50.55;101416.41;5003050;28;99119;-65
2022/12/27 00:46:26;;;;;;;11.75;2.08;;;;;;;9.43;51.08;101420.03;5006994;28;96868;-65
2022/12/27 00:48:54;;;;;;;7.22;1.40;;;;;;;9.44;51.13;101424.41;5010667;28;97224;-65
2022/12/27 00:51:22;;;;;;;10.52;1.85;;;;;;;9.33;51.27;101430.75;5007260;28;99138;-64
2022/12/27 00:53:50;;;;;;;15.45;1.45;;;;;;;9.15;51.62;101434.63;5010401;28;99276;-64
2022/12/27 00:56:19;;;;;;;12.23;1.05;;;;;;;9.16;51.53;101436.38;5008288;28;96679;-65
2022/12/27 00:58:47;;;;;;;13.32;1.65;;;;;;;9.17;51.54;101432.84;5010674;28;96841;-67
2022/12/27 01:01:15;;;;;;;7.22;1.05;;;;;;;8.91;52.40;101441.22;5008170;28;98326;-66
2022/12/27 01:03:42;;;;;;;8.93;1.08;;;;;;;9.05;52.11;101446.25;5002220;28;98845;-65
2022/12/27 01:06:11;;;;;;;11.10;2.90;;;;;;;8.92;52.59;101439.47;5008595;28;96701;-66
2022/12/27 01:08:38;;;;;;;16.80;1.17;;;;;;;9.10;52.52;101457.59;5005799;28;97052;-65
2022/12/27 01:11:05;;;;;;;8.55;1.02;;;;;;;9.02;52.16;101456.84;5002615;28;99079;-64
2022/12/27 01:13:32;;;;;;;14.18;1.75;;;;;;;8.96;52.77;101449.03;5003869;28;99158;-64
2022/12/27 01:16:00;;;;;;;14.13;1.50;;;;;;;8.90;52.89;101450.03;5008290;27;97541;-66
2022/12/27 01:18:26;;;;;;;8.63;1.50;;;;;;;9.06;52.39;101463.78;5009617;28;96930;-64
2022/12/27 01:20:52;;;;;;;11.63;1.65;;;;;;;8.82;53.19;101475.63;5006842;27;99101;-64
2022/12/27 01:23:19;;;;;;;10.48;1.30;;;;;;;8.83;52.89;101473.88;5018474;27;99040;-65
2022/12/27 01:25:45;;;;;;;10.32;1.55;;;;;;;8.63;53.55;101479.47;5001278;28;96829;-65
2022/12/27 01:28:12;;;;;;;13.30;1.85;;;;;;;8.24;54.82;101483.53;5010966;28;98253;-65
2022/12/27 01:30:38;;;;;;;17.05;1.45;;;;;;;8.28;55.02;101478.19;5007359;28;99910;-64
2022/12/27 01:33:06;;;;;;;12.10;1.70;;;;;;;8.36;54.98;101486.91;5008641;28;98855;-65
2022/12/27 01:35:32;;;;;;;10.15;1.45;;;;;;;8.36;55.02;101494.78;5001900;28;96642;-65
2022/12/27 01:37:59;;;;;;;8.90;1.33;;;;;;;8.42;54.97;101492.97;5009238;28;97352;-65
2022/12/27 01:40:25;;;;;;;13.27;1.65;;;;;;;8.52;54.82;101495.44;5003426;28;98280;-66
2022/12/27 01:42:51;;;;;;;12.40;1.27;;;;;;;8.46;54.92;101497.31;5009970;28;98381;-66
2022/12/27 01:45:18;;;;;;;;;;;;;;;8.24;55.48;101499.34;5009211;28;96747;-65
2022/12/27 01:47:50;;;;;;;12.57;2.13;;;;;;;8.36;55.58;101501.81;5005482;28;97222;-66
2022/12/27 01:50:26;;;;;;;10.13;1.42;;;;;;;8.34;55.78;101503.59;5000887;28;99508;-65
2022/12/27 01:52:59;;;;;;;9.95;1.95;;;;;;;8.26;55.86;101508.97;5010029;28;98743;-64
2022/12/27 01:55:31;;;;;;;5.80;1.45;;;;;;;8.35;55.94;101514.13;5001345;28;97268;-65
2022/12/27 01:58:03;;;;;;;12.60;2.75;;;;;;;8.10;56.54;101504.78;5005764;28;96851;-65
2022/12/27 02:00:29;;;;;;;11.02;1.48;;;;;;;8.12;56.41;101505.66;5002169;28;98992;-65
2022/12/27 02:02:56;;;;;;;12.00;1.80;;;;;;;8.36;55.91;101510.59;5004443;28;100510;-64
2022/12/27 02:05:25;;;;;;;11.95;1.40;;;;;;;8.28;55.90;101508.94;5002637;28;96679;-65
2022/12/27 02:08:04;;;;;;;14.43;2.10;;;;;;;8.33;55.79;101512.41;5003536;28;97298;-65
2022/12/27 02:10:31;;;;;;;14.23;1.20;;;;;;;8.11;56.19;101519.69;5009968;28;99104;-65
2022/12/27 02:12:58;;;;;;;10.55;1.55;;;;;;;7.87;57.22;101512.13;5002712;28;99206;-65
2022/12/27 02:15:25;;;;;;;6.72;1.90;;;;;;;8.16;56.37;101517.00;5009805;28;96754;-65
2022/12/27 02:17:51;;;;;;;11.35;1.73;;;;;;;8.19;56.62;101524.88;5003000;28;96772;-64
2022/12/27 02:20:21;;;;;;;15.95;1.98;;;;;;;8.10;56.36;101525.84;5009874;28;99285;-65
2022/12/27 02:26:44;;;;;;;9.05;1.80;;;;;;;7.98;56.71;101537.41;4998278;28;96754;-65
2022/12/27 02:29:50;;;;;;;11.85;1.38;;;;;;;7.77;57.43;101544.69;5012364;28;96836;-64
2022/12/27 02:32:22;;;;;;;16.60;1.60;;;;;;;7.84;57.22;101535.81;5006158;28;98947;-64
2022/12/27 02:34:57;;;;;;;9.35;1.35;;;;;;;8.14;56.34;101540.69;5011999;27;99385;-65
2022/12/27 02:37:26;;;;;;;9.48;1.52;;;;;;;8.14;56.21;101543.34;5011153;28;97809;-64
2022/12/27 02:39:55;;;;;;;6.90;1.05;;;;;;;8.28;55.98;101543.16;5008993;27;96922;-65
2022/12/27 02:54:02;;;;;;;16.97;1.43;;;;;;;8.47;55.34;101559.63;5010662;28;97132;-65
2022/12/27 03:03:19;;;;;;;11.02;1.60;;;;;;;8.26;55.77;101555.50;5006810;28;96909;-71
2022/12/27 03:05:25;;;;;;;18.00;2.05;;;;;;;8.32;55.64;101569.47;5007068;28;97165;-72
2022/12/27 03:08:01;;;;;;;12.43;1.60;;;;;;;8.43;55.38;101571.97;5000848;28;99299;-71
2022/12/27 03:16:21;;;;;;;12.77;1.55;;;;;;;8.22;55.69;101566.94;5003571;28;97220;-71
2022/12/27 03:19:02;;;;;;;15.63;3.00;;;;;;;8.24;55.67;101581.84;5004912;28;98792;-71
2022/12/27 03:27:08;;;;;;;12.20;1.50;;;;;;;8.08;56.01;101584.66;5001079;28;98594;-71
2022/12/27 03:35:10;;;;;;;9.98;1.13;;;;;;;7.65;57.47;101581.63;5000836;28;96746;-71
2022/12/27 03:40:33;;;;;;;13.07;1.45;;;;;;;8.07;56.27;101585.56;5003414;28;97092;-71
2022/12/27 03:43:12;;;;;;;9.17;1.37;;;;;;;7.95;56.30;101586.56;5001398;28;96898;-71
2022/12/27 03:48:47;;;;;;;6.03;1.40;;;;;;;8.19;55.78;101601.22;4997515;28;97439;-71
2022/12/27 03:51:20;;;;;;;12.80;1.75;;;;;;;8.04;55.95;101590.84;5000442;28;98711;-72
2022/12/27 03:53:48;;;;;;;7.18;1.48;;;;;;;8.00;56.39;101590.03;4996018;28;96681;-72
2022/12/27 03:56:15;;;;;;;13.35;1.40;;;;;;;8.10;56.07;101596.91;4998870;28;97311;-71
2022/12/27 03:58:41;;;;;;;9.35;1.13;;;;;;;8.03;55.97;101592.63;5004674;28;99838;-70
2022/12/27 04:01:08;;;;;;;10.60;1.30;;;;;;;7.99;56.29;101593.56;5000376;28;99063;-71
2022/12/27 04:03:34;;;;;;;9.95;1.45;;;;;;;8.15;56.11;101589.84;5003987;28;97284;-71
2022/12/27 04:06:00;;;;;;;11.45;1.50;;;;;;;8.06;55.96;101602.25;5003372;28;97675;-71
2022/12/27 04:35:49;;;;;;;8.32;1.58;;;;;;;7.80;56.85;101594.66;4996860;28;96777;-70
2022/12/27 04:38:16;;;;;;;8.65;1.30;;;;;;;7.76;57.19;101590.28;5003230;28;96871;-71
2022/12/27 04:57:13;;;;;;;9.88;2.10;;;;;;;7.53;57.29;101607.19;5005933;28;96712;-72
2022/12/27 05:02:24;;;;;;;6.88;2.33;;;;;;;7.94;55.91;101608.53;5001567;28;97120;-71
2022/12/27 05:04:50;;;;;;;11.02;1.63;;;;;;;7.98;55.80;101603.22;4999814;28;99333;-71
2022/12/27 05:15:34;;;;;;;7.15;1.70;;;;;;;7.93;55.46;101604.16;5006121;28;97611;-72
2022/12/27 05:18:00;;;;;;;10.20;1.55;;;;;;;7.89;55.92;101594.53;5003386;28;96747;-71
2022/12/27 05:20:26;;;;;;;8.73;1.38;;;;;;;7.87;55.83;101591.06;5006759;28;96791;-71
2022/12/27 05:25:40;;;;;;;10.10;1.48;;;;;;;7.76;55.92;101611.34;5003644;28;97983;-71
2022/12/27 05:28:10;;;;;;;7.80;1.23;;;;;;;8.01;55.32;101604.91;5005407;28;97085;-72
2022/12/27 05:30:39;;;;;;;8.85;1.30;;;;;;;8.02;55.37;101612.81;5010557;28;97014;-71
2022/12/27 05:33:05;;;;;;;6.35;2.00;;;;;;;8.07;55.21;101615.41;5012119;28;98614;-71
2022/12/27 05:35:33;;;;;;;7.80;1.30;;;;;;;8.24;54.98;101615.19;5007562;28;98979;-70
2022/12/27 05:37:59;;;;;;;8.52;1.33;;;;;;;8.52;54.28;101610.47;5003931;28;96752;-71
2022/12/27 05:40:26;;;;;;;11.02;1.63;;;;;;;8.54;54.02;101619.22;5012036;28;96815;-71
2022/12/27 05:42:53;;;;;;;7.88;1.27;;;;;;;8.43;54.07;101627.28;5009885;28;99243;-70
2022/12/27 05:45:21;;;;;;;5.45;1.20;;;;;;;8.26;54.26;101626.59;5002956;28;97647;-72
2022/12/27 05:47:50;;;;;;;13.20;1.50;;;;;;;8.31;54.41;101633.56;5002916;28;96881;-71
2022/12/27 05:50:16;;;;;;;5.55;1.20;;;;;;;8.31;54.05;101628.31;5007471;28;96779;-72
2022/12/27 05:52:43;;;;;;;4.30;1.08;;;;;;;8.31;54.55;101627.44;5003499;28;98964;-71
2022/12/27 05:55:10;;;;;;;6.85;1.00;;;;;;;8.24;54.12;101638.88;5006029;28;98747;-71
2022/12/27 05:57:36;;;;;;;7.03;1.35;;;;;;;8.15;54.37;101634.59;5002687;28;97261;-71
2022/12/27 06:00:04;;;;;;;10.20;1.58;;;;;;;8.22;54.37;101638.03;5008384;28;96852;-71
2022/12/27 06:02:31;;;;;;;10.77;1.55;;;;;;;8.42;54.24;101645.72;5004166;28;97245;-72
2022/12/27 06:04:58;;;;;;;5.50;1.35;;;;;;;8.21;54.31;101650.31;5009371;28;99511;-72
2022/12/27 06:07:24;;;;;;;8.07;1.50;;;;;;;8.31;54.48;101656.38;5006936;28;96856;-70
2022/12/27 06:09:50;;;;;;;10.40;1.98;;;;;;;8.34;54.08;101658.97;5002853;28;97104;-71
2022/12/27 06:12:17;;;;;;;8.00;1.45;;;;;;;8.19;54.71;101662.66;5009133;28;99172;-71
2022/12/27 06:14:43;;;;;;;7.93;2.40;;;;;;;8.34;54.39;101662.47;5002280;28;98775;-70
2022/12/27 06:17:10;;;;;;;12.07;1.60;;;;;;;8.20;54.40;101664.41;5010586;28;96720;-71
2022/12/27 06:19:37;;;;;;;11.32;1.45;;;;;;;8.13;54.91;101660.09;5002093;28;97103;-72
2022/12/27 06:22:04;;;;;;;7.22;1.02;;;;;;;8.26;54.38;101659.06;5001972;28;100783;-71
2022/12/27 06:24:30;;;;;;;8.57;1.30;;;;;;;8.16;54.67;101660.03;4997184;28;98994;-71
2022/12/27 06:26:56;;;;;;;10.10;1.05;;;;;;;8.16;54.94;101665.28;5008597;28;97373;-71
2022/12/27 06:29:27;;;;;;;4.95;0.82;;;;;;;8.04;55.09;101667.19;5003401;28;96832;-72
2022/12/27 06:31:53;;;;;;;8.30;1.20;;;;;;;8.16;54.94;101654.75;5008401;28;96954;-71
2022/12/27 06:34:19;;;;;;;13.98;1.65;;;;;;;8.07;55.09;101667.16;5000354;28;101596;-72
2022/12/27 06:36:49;;;;;;;8.40;1.10;;;;;;;8.13;55.05;101660.09;5006430;28;96720;-71
2022/12/27 06:39:16;;;;;;;6.80;0.93;;;;;;;8.20;54.85;101672.28;5000732;28;96836;-71
2022/12/27 06:41:42;;;;;;;6.90;1.17;;;;;;;8.15;54.76;101667.94;5010118;28;98730;-71
2022/12/27 06:44:09;;;;;;;8.73;0.90;;;;;;;7.99;55.49;101681.28;5012267;28;99282;-71
2022/12/27 06:46:35;;;;;;;8.98;1.63;;;;;;;8.18;55.22;101674.06;5006842;28;97755;-71
2022/12/27 06:49:03;;;;;;;13.05;1.55;;;;;;;8.12;55.08;101675.88;5010260;28;96829;-72
2022/12/27 06:51:30;;;;;;;5.70;0.98;;;;;;;8.20;54.96;101680.19;5003684;28;99097;-71
2022/12/27 06:53:58;;;;;;;7.95;1.40;;;;;;;8.15;55.07;101678.47;5006822;28;98879;-70
2022/12/27 06:56:24;;;;;;;6.15;1.20;;;;;;;8.14;54.93;101680.22;5004113;28;96727;-71
2022/12/27 06:58:51;;;;;;;5.28;0.90;;;;;;;7.99;55.30;101680.41;5003032;28;96762;-70
2022/12/27 07:01:19;;;;;;;9.70;1.08;;;;;;;7.93;55.66;101676.09;5006836;28;99352;-72
2022/12/27 07:03:48;;;;;;;6.72;1.10;;;;;;;7.87;55.80;101677.91;5001559;28;97638;-69
2022/12/27 07:06:15;;;;;;;9.88;1.20;;;;;;;7.70;55.99;101674.53;5007156;28;97019;-71
2022/12/27 07:08:42;;;;;;;3.17;1.08;;;;;;;7.87;55.93;101680.53;5004272;28;96772;-71
2022/12/27 07:11:11;;;;;;;4.53;1.20;;;;;;;7.63;56.28;101686.88;5003243;28;98315;-71
2022/12/27 07:13:39;;;;;;;4.13;1.10;;;;;;;7.82;56.09;101680.56;5001819;28;98857;-71
2022/12/27 07:16:08;;;;;;;5.68;1.27;;;;;;;7.93;55.49;101696.25;5002677;28;96641;-72
2022/12/27 07:18:35;;;;;;;6.95;1.15;;;;;;;8.06;55.33;101695.25;5004225;28;97935;-72
2022/12/27 07:21:04;;;;;;;6.50;1.30;;;;;;;7.99;55.29;101710.22;5006113;28;98636;-70
2022/12/27 07:23:30;;;;;;;10.45;1.23;;;;;;;7.91;55.71;101714.69;5001507;28;98929;-70
2022/12/27 07:26:01;;;;;;;6.95;1.30;;;;;;;8.04;55.22;101722.47;5001219;28;96888;-70
2022/12/27 07:28:29;;;;;;;5.50;1.45;;;;;;;8.06;55.39;101711.03;5008819;28;96878;-70
2022/12/27 07:30:56;;;;;;;7.55;1.20;;;;;;;8.05;55.46;101729.47;5002315;28;98853;-72
2022/12/27 07:33:23;;;;;;;4.90;1.02;;;;;;;8.14;55.27;101718.88;5008725;28;101594;-71
2022/12/27 07:35:49;;;;;;;7.22;1.27;;;;;;;7.96;55.32;101743.59;5003223;28;96823;-72
2022/12/27 07:38:16;;;;;;;6.15;1.30;;;;;;;7.60;56.44;101726.38;5010996;28;96913;-72
2022/12/27 07:40:42;;;;;;;9.88;1.20;;;;;;;7.85;55.96;101741.06;5001753;28;98840;-71
2022/12/27 07:43:09;;;;;;;9.45;1.33;;;;;;;7.87;55.52;101735.78;5011299;28;98773;-71
2022/12/27 07:45:36;;;;;;;12.85;1.30;;;;;;;7.98;55.13;101744.47;5001586;28;96699;-71
2022/12/27 07:48:03;;;;;;;6.13;1.00;;;;;;;7.96;55.33;101738.31;5007760;28;97095;-71
2022/12/27 07:50:29;;;;;;;5.82;1.00;;;;;;;8.08;55.24;101743.47;5001396;28;98846;-71
2022/12/27 07:52:56;;;;;;;9.52;1.27;;;;;;;8.17;54.62;101753.06;5011159;28;99361;-71
2022/12/27 07:55:22;;;;;;;7.78;1.15;;;;;;;8.21;54.66;101753.00;5001545;28;96852;-71
2022/12/27 07:57:49;;;;;;;5.78;1.10;;;;;;;8.27;54.30;101750.28;5004334;28;96769;-71
2022/12/27 08:00:16;;;;;;;11.05;1.55;;;;;;;8.12;54.57;101750.47;4999168;28;99017;-71
2022/12/27 08:02:45;;;;;;;7.22;1.00;;;;;;;8.17;54.77;101735.50;5005623;28;100305;-71
2022/12/27 08:05:12;;;;;;;7.88;1.40;;;;;;;8.13;54.88;101743.44;5006682;28;96853;-71
2022/12/27 08:07:41;;;;;;;8.95;1.80;;;;;;;8.19;54.75;101751.28;5003978;28;96819;-71
2022/12/27 08:10:08;;;;;;;10.85;1.20;;;;;;;8.20;54.90;101747.78;5005518;28;97765;-72
2022/12/27 08:12:34;;;;;;;5.13;1.27;;;;;;;8.02;54.48;101757.56;5006155;28;98183;-71
2022/12/27 08:15:01;;;;;;;5.78;1.30;;;;;;;8.13;55.63;101767.13;5000198;28;96722;-71
2022/12/27 08:17:28;;;;;;;8.93;1.35;;;;;;;8.27;55.41;101762.63;5004608;28;97184;-72
2022/12/27 08:19:56;;;;;;;5.93;1.50;;;;;;;8.34;54.74;101775.72;5009336;28;97910;-72
2022/12/27 08:22:23;;;;;;;4.25;0.82;;;;;;;8.31;55.28;101754.69;5005265;28;98261;-72
2022/12/27 08:24:50;;;;;;;11.45;1.33;;;;;;;8.32;54.86;101777.53;5009094;28;96729;-72
2022/12/27 08:27:21;;;;;;;8.13;1.55;;;;;;;8.31;55.00;101774.91;5002960;28;96708;-72
2022/12/27 08:29:48;;;;;;;9.80;1.55;;;;;;;8.57;54.61;101777.25;5002446;28;97642;-71
2022/12/27 08:32:15;;;;;;;7.82;1.33;;;;;;;8.65;53.91;101775.41;5002158;28;99458;-72
2022/12/27 08:34:42;;;;;;;8.02;1.58;;;;;;;8.39;54.89;101773.94;5006961;28;96800;-71
2022/12/27 08:37:10;;;;;;;7.00;1.40;;;;;;;8.64;54.36;101765.75;5001921;28;96761;-72
2022/12/27 08:39:36;;;;;;;9.30;1.45;;;;;;;8.74;54.29;101764.75;5001433;28;99315;-72
2022/12/27 08:42:03;;;;;;;3.75;1.17;;;;;;;8.46;54.65;101782.66;5001149;28;98912;-72
2022/12/27 08:44:29;;;;;;;6.18;1.10;;;;;;;8.29;55.27;101764.34;5000397;28;96845;-71
2022/12/27 08:46:56;;;;;;;13.02;1.50;;;;;;;8.23;55.40;101772.28;5004008;28;96846;-71
2022/12/27 08:49:22;;;;;;;7.20;1.17;;;;;;;8.73;54.03;101774.41;5012091;28;98369;-71
2022/12/27 08:51:49;;;;;;;10.15;1.45;;;;;;;8.56;54.40;101775.50;5002777;28;98846;-71
2022/12/27 08:54:17;;;;;;;7.00;1.30;;;;;;;8.60;54.60;101782.50;5012750;28;97070;-72
2022/12/27 08:56:43;;;;;;;9.65;1.30;;;;;;;8.51;54.75;101780.84;5000918;28;96773;-71
2022/12/27 08:59:09;;;;;;;8.45;1.50;;;;;;;8.69;54.49;101790.28;5010674;28;98372;-71
2022/12/27 09:01:38;;;;;;;6.60;1.33;;;;;;;8.65;54.24;101781.56;5006959;28;98972;-72
2022/12/27 09:04:05;;;;;;;6.68;1.40;;;;;;;8.72;54.03;101790.25;5004815;28;97338;-72
2022/12/27 09:06:32;;;;;;;9.30;1.52;;;;;;;8.78;54.09;101793.72;5009169;28;96849;-71
2022/12/27 09:09:00;;;;;;;6.47;1.45;;;;;;;8.76;54.20;101794.59;5007593;28;98886;-71
2022/12/27 09:11:30;;;;;;;11.52;1.50;;;;;;;8.70;54.29;101794.66;5002763;28;97823;-71
2022/12/27 09:13:59;;;;;;;5.03;1.40;;;;;;;8.94;53.95;101794.38;4997199;28;99115;-70
2022/12/27 09:16:26;;;;;;;5.45;1.33;;;;;;;8.76;54.80;101786.69;4998844;28;97609;-73
2022/12/27 09:18:55;;;;;;;7.97;2.03;;;;;;;8.71;55.17;101791.16;4994063;28;98998;-71
2022/12/27 09:21:24;;;;;;;6.55;1.60;;;;;;;9.00;54.93;101785.50;4996492;28;99256;-70
2022/12/27 09:23:51;;;;;;;5.53;1.30;;;;;;;8.74;54.65;101796.38;5000127;28;96779;-71
2022/12/27 09:26:20;;;;;;;6.55;1.33;;;;;;;8.58;55.47;101803.59;5001023;28;99425;-71
2022/12/27 09:28:49;;;;;;;12.68;1.60;;;;;;;8.72;55.39;101792.91;5002550;28;98229;-71
2022/12/27 09:31:16;;;;;;;8.65;1.80;;;;;;;9.08;54.35;101800.34;4997479;28;99080;-73
2022/12/27 09:33:43;;;;;;;6.10;1.35;;;;;;;8.99;54.14;101796.97;4995334;28;96900;-71
2022/12/27 09:36:11;;;;;;;7.65;1.30;;;;;;;8.97;54.11;101789.09;4997243;28;97537;-71
2022/12/27 09:38:39;;;;;;;4.28;1.30;;;;;;;8.85;54.43;101793.63;4999596;28;99462;-72
2022/12/27 09:41:13;;;;;;;4.60;1.38;;;;;;;9.12;54.28;101804.69;4996694;28;98085;-71
2022/12/27 09:43:47;;;;;;;7.28;1.63;;;;;;;9.13;53.87;101801.16;4996606;28;97154;-72
2022/12/27 09:46:19;;;;;;;5.70;1.20;;;;;;;8.84;54.64;101803.31;4998401;28;96903;-71
2022/12/27 09:48:48;;;;;;;8.13;1.55;;;;;;;9.21;53.81;101806.34;4998970;28;99398;-72
2022/12/27 09:51:19;;;;;;;11.40;1.83;;;;;;;9.36;53.18;101813.19;4995428;28;98975;-72
2022/12/27 09:53:52;;;;;;;4.60;1.10;;;;;;;9.28;53.02;101810.66;4997150;28;96885;-71
2022/12/27 09:56:24;;;;;;;7.95;1.90;;;;;;;9.48;53.08;101820.94;4997003;28;97540;-73
2022/12/27 09:58:54;;;;;;;6.13;1.63;;;;;;;9.40;53.06;101809.59;4996947;28;99481;-72
2022/12/27 10:01:30;;;;;;;6.15;1.35;;;;;;;9.06;53.64;101812.69;4996636;28;100545;-71
2022/12/27 10:03:57;;;;;;;6.15;1.42;;;;;;;9.49;53.32;101806.84;4996334;28;99213;-71
2022/12/27 10:06:50;;;;;;;9.07;1.85;;;;;;;9.48;53.23;101791.91;4997552;28;97217;-71
2022/12/27 10:09:32;;;;;;;13.43;3.22;;;;;;;9.29;54.50;101806.25;4997413;28;99229;-71
2022/12/27 10:12:04;;;;;;;4.90;1.63;;;;;;;9.39;54.13;101798.16;4996413;28;99347;-72
2022/12/27 10:14:48;;;;;;;4.70;1.08;;;;;;;9.48;54.14;101797.19;4996910;28;99129;-73
2022/12/27 10:17:32;;;;;;;6.75;1.50;;;;;;;9.08;54.73;101797.72;4997860;28;96938;-72
2022/12/27 10:20:11;;;;;;;7.22;2.05;;;;;;;9.36;54.90;101800.00;4997382;28;99207;-71
2022/12/27 10:22:48;;;;;;;6.68;1.30;;;;;;;9.17;54.88;101797.63;4998204;28;98714;-71
2022/12/27 10:25:18;;;;;;;7.63;1.42;;;;;;;9.41;54.43;101798.16;5001442;28;98961;-71
2022/12/27 10:27:46;;;;;;;7.05;1.40;;;;;;;9.70;53.86;101798.63;5005869;28;96939;-71
2022/12/27 10:30:16;;;;;;;9.45;1.90;;;;;;;9.92;53.14;101807.94;5002644;28;98934;-71
2022/12/27 10:32:45;;;;;;;8.55;1.83;;;;;;;9.96;53.34;101817.56;4996319;28;99005;-72
2022/12/27 10:35:15;;;;;;;12.23;1.52;;;;;;;9.58;54.06;101825.19;5004474;28;98043;-70
2022/12/27 10:37:42;;;;;;;7.20;1.95;;;;;;;9.64;54.01;101824.22;5006978;28;97718;-71
2022/12/27 10:40:14;;;;;;;8.32;2.42;;;;;;;9.53;54.51;101816.44;5003198;28;99402;-71
2022/12/27 10:42:45;;;;;;;10.85;2.00;;;;;;;9.95;53.96;101830.78;5003441;28;100033;-72
2022/12/27 10:45:31;;;;;;;5.25;1.63;;;;;;;9.85;53.61;101827.41;5010166;28;97270;-71
2022/12/27 10:48:13;;;;;;;11.07;1.98;;;;;;;8.98;56.25;101837.41;4994056;28;98187;-72
2022/12/27 10:50:44;;;;;;;8.15;1.95;;;;;;;9.41;55.17;101837.72;5005359;28;99236;-71
2022/12/27 10:53:27;;;;;;;9.10;1.90;;;;;;;9.70;54.77;101840.84;5005568;28;100917;-70
2022/12/27 10:56:07;;;;;;;10.77;2.22;;;;;;;9.72;54.70;101838.16;5005341;28;96857;-71
2022/12/27 10:58:39;;;;;;;9.48;1.60;;;;;;;9.90;53.93;101848.47;5005060;28;96654;-71
2022/12/27 11:01:05;;;;;;;8.45;1.63;;;;;;;9.95;53.66;101847.50;5008963;28;99439;-71
2022/12/27 11:03:33;;;;;;;7.57;1.98;;;;;;;9.92;53.86;101847.53;5010978;28;101093;-71
2022/12/27 11:06:01;;;;;;;4.68;1.67;;;;;;;9.78;53.89;101843.38;5005891;28;96794;-72
2022/12/27 11:08:30;;;;;;;8.32;1.92;;;;;;;9.53;54.77;101848.13;5004776;28;96822;-71
2022/12/27 11:11:15;;;;;;;6.50;1.83;;;;;;;9.62;54.50;101850.63;5005720;28;98883;-72
2022/12/27 11:13:42;;;;;;;7.32;1.77;;;;;;;9.74;54.84;101842.53;5007068;28;99213;-71
2022/12/27 11:16:15;;;;;;;8.85;1.80;;;;;;;9.69;54.68;101848.78;5000334;28;97262;-72
2022/12/27 11:18:48;;;;;;;6.97;2.60;;;;;;;9.40;55.10;101846.53;5005762;28;97071;-71
2022/12/27 11:21:17;;;;;;;5.68;1.60;;;;;;;9.33;55.55;101863.31;5006989;28;99243;-69
2022/12/27 11:23:48;;;;;;;7.22;1.67;;;;;;;9.39;55.61;101857.97;5008905;28;99166;-65
2022/12/27 11:26:23;;;;;;;7.25;1.75;;;;;;;9.56;54.61;101850.72;4999963;28;97085;-66
2022/12/27 11:28:53;;;;;;;9.87;3.50;;;;;;;9.48;55.22;101863.13;5003617;28;96697;-64
2022/12/27 11:31:30;;;;;;;7.50;2.20;;;;;;;9.50;55.37;101869.28;5009643;28;99414;-66
2022/12/27 11:34:01;;;;;;;8.82;1.88;;;;;;;9.89;54.18;101863.44;5002132;28;98996;-64
2022/12/27 11:36:31;;;;;;;7.93;2.22;;;;;;;9.94;54.01;101874.78;5007037;28;97473;-65
2022/12/27 11:38:59;;;;;;;4.22;1.70;;;;;;;9.77;54.42;101871.53;5004542;28;96918;-66
2022/12/27 11:41:34;;;;;;;10.10;1.67;;;;;;;9.40;55.31;101879.06;5009224;28;101493;-65
2022/12/27 11:44:10;;;;;;;4.65;1.85;;;;;;;9.66;54.63;101870.81;5002561;28;99513;-66
2022/12/27 11:46:41;;;;;;;7.88;1.75;;;;;;;9.55;55.24;101875.38;5006442;28;97229;-65
2022/12/27 11:49:13;;;;;;;13.63;2.63;;;;;;;9.66;55.04;101880.47;5004227;28;97164;-66
2022/12/27 11:52:01;;;;;;;7.47;2.15;;;;;;;9.75;54.61;101875.97;5004820;28;99632;-65
2022/12/27 11:54:49;;;;;;;7.75;2.28;;;;;;;10.15;53.67;101870.97;5006348;28;97522;-66
2022/12/27 11:57:25;;;;;;;8.20;2.13;;;;;;;10.26;53.47;101868.16;5005398;28;96889;-66
2022/12/27 12:00:05;;;;;;;8.02;2.17;;;;;;;10.18;53.70;101870.94;5007241;28;96886;-65
2022/12/27 12:03:03;;;;;;;9.93;2.22;;;;;;;10.48;52.50;101863.41;5004064;28;98900;-66
2022/12/27 12:05:56;;;;;;;11.05;2.08;;;;;;;9.99;53.11;101853.59;5003666;28;98982;-65
2022/12/27 12:08:59;;;;;;;7.70;1.83;;;;;;;10.23;52.87;101857.66;5004128;28;96778;-66
2022/12/27 12:11:38;;;;;;;11.18;2.10;;;;;;;10.08;53.26;101857.88;5002167;28;96809;-65
2022/12/27 12:14:34;;;;;;;9.45;1.67;;;;;;;9.74;53.53;101862.78;5008160;28;99377;-66
2022/12/27 12:17:15;;;;;;;9.02;2.05;;;;;;;9.62;53.93;101871.75;5005170;28;97741;-65
2022/12/27 12:20:13;;;;;;;7.55;2.00;;;;;;;9.90;53.21;101873.09;5006556;28;97161;-66
2022/12/27 12:22:57;;;;;;;5.88;1.45;;;;;;;10.19;52.85;101877.97;5003136;28;96839;-66
2022/12/27 12:25:44;;;;;;;12.68;1.92;;;;;;;9.98;53.30;101865.03;5009668;28;99265;-66
2022/12/27 12:28:40;;;;;;;9.48;2.17;;;;;;;10.02;53.87;101877.31;5005583;28;98900;-72
2022/12/27 12:31:23;;;;;;;8.77;2.58;;;;;;;10.22;53.04;101888.50;5009931;28;96838;-66
2022/12/27 12:34:04;;;;;;;11.45;3.05;;;;;;;9.81;54.15;101888.19;5011786;28;96979;-65
2022/12/27 12:36:46;;;;;;;9.55;2.20;;;;;;;9.81;54.58;101891.72;5005384;28;98204;-65
2022/12/27 12:39:25;;;;;;;11.85;2.20;;;;;;;10.28;53.38;101898.09;5008247;28;99216;-65
2022/12/27 12:42:15;;;;;;;6.97;2.15;;;;;;;10.54;52.55;101895.88;5007391;28;97651;-66
2022/12/27 12:45:16;;;;;;;5.72;1.80;;;;;;;10.41;52.35;101891.69;5007232;28;96928;-66
2022/12/27 12:47:58;;;;;;;10.60;2.13;;;;;;;10.41;52.67;101894.34;5003631;28;97584;-66
2022/12/27 12:50:41;;;;;;;6.22;1.50;;;;;;;10.27;52.45;101885.75;5008559;28;97736;-65
2022/12/27 12:53:28;;;;;;;10.00;2.03;;;;;;;10.56;52.35;101895.84;5005165;28;96726;-66
2022/12/27 12:56:15;;;;;;;6.70;1.77;;;;;;;10.36;52.05;101902.34;5000888;28;97530;-66
2022/12/27 12:58:53;;;;;;;4.75;1.75;;;;;;;10.66;51.96;101908.88;5011992;28;99350;-66
2022/12/27 13:01:31;;;;;;;8.95;2.25;;;;;;;11.02;50.87;101914.41;5004168;28;98875;-65
2022/12/27 13:04:27;;;;;;;8.48;1.73;;;;;;;10.51;51.37;101898.56;5012563;28;96840;-65
2022/12/27 13:07:12;;;;;;;11.95;2.35;;;;;;;10.60;51.13;101910.75;5007967;28;97686;-66
2022/12/27 13:09:50;;;;;;;7.97;1.77;;;;;;;10.75;50.83;101903.44;5006779;28;99419;-65
2022/12/27 13:12:25;;;;;;;11.57;2.05;;;;;;;11.08;50.09;101909.88;5012014;28;99278;-65
2022/12/27 13:15:22;;;;;;;8.77;1.63;;;;;;;11.47;49.00;101918.78;5007664;28;97067;-65
2022/12/27 13:18:03;;;;;;;5.90;1.42;;;;;;;11.27;49.24;101920.09;5010267;28;96843;-65
2022/12/27 13:20:50;;;;;;;9.25;1.98;;;;;;;11.71;48.67;101916.53;5006811;28;98981;-66
2022/12/27 13:23:22;;;;;;;;;;;;;;;11.94;47.79;101919.59;5006866;28;98894;-65
2022/12/27 13:25:56;;;;;;;14.45;2.15;;;;;;;11.55;47.59;101916.84;5002359;28;96801;-65
2022/12/27 13:28:38;;;;;;;11.55;2.05;;;;;;;11.09;47.88;101913.41;5004059;28;97410;-69